Terminal Aerodrome Forecast
Issued by NWS

Home | Current Version | Previous Version | Graphics & Text | Print | Product List | Glossary Off
Versions: 1 2 3 4 5 6 7 8 9 10 11 12 13 14 15 16 17 18 19 20

000
FTUS43 KGRB 230500
TAFMTW
TAF
KMTW 230520Z 2306/2406 25004KT P6SM SKC
      TEMPO 2308/2312 4SM BR
     FM231800 18009KT P6SM SKC
     FM240100 18003KT P6SM SKC=

USA.gov is the U.S. government's official web portal to all federal, state and local government web resources and services.